createdAt,value
2019-05-17T00:01:48.570Z,100578.30
2019-05-17T00:04:19.498Z,100573.28
2019-05-17T00:06:50.520Z,100571.80
2019-05-17T00:09:21.689Z,100568.38
2019-05-17T00:11:52.672Z,100564.56
2019-05-17T00:14:23.656Z,100554.09
2019-05-17T00:16:57.111Z,100556.05
2019-05-17T00:19:27.547Z,100548.38
2019-05-17T00:21:58.847Z,100545.57
2019-05-17T00:24:32.686Z,100538.09
2019-05-17T00:27:03.580Z,100536.22
2019-05-17T00:29:37.037Z,100529.80
2019-05-17T00:32:07.328Z,100532.42
2019-05-17T00:34:38.317Z,100525.71
2019-05-17T00:37:09.390Z,100520.80
2019-05-17T00:39:42.523Z,100520.18
2019-05-17T00:42:13.454Z,100517.38
2019-05-17T00:44:44.391Z,100519.40
2019-05-17T00:47:17.118Z,100517.52
2019-05-17T00:49:48.055Z,100513.88
2019-05-17T00:52:19.084Z,100521.02
2019-05-17T00:54:50.186Z,100520.65
2019-05-17T00:57:21.086Z,100510.23
2019-05-17T00:59:52.105Z,100511.09
2019-05-17T01:02:23.212Z,100510.28
2019-05-17T01:04:54.255Z,100504.85
2019-05-17T01:07:26.879Z,100503.05
2019-05-17T01:09:59.346Z,100505.13
2019-05-17T01:12:30.600Z,100497.46
2019-05-17T01:15:01.997Z,100493.91
2019-05-17T01:17:33.095Z,100490.09
2019-05-17T01:20:06.688Z,100488.81
2019-05-17T01:22:37.068Z,100489.78
2019-05-17T01:25:08.702Z,100489.31
2019-05-17T01:27:39.789Z,100480.67
2019-05-17T01:30:10.915Z,100482.11
2019-05-17T01:32:42.101Z,100478.45
2019-05-17T01:35:13.030Z,100475.30
2019-05-17T01:37:44.067Z,100469.84
2019-05-17T01:40:17.327Z,100469.19
2019-05-17T01:42:47.878Z,100468.50
2019-05-17T01:45:18.938Z,100465.87
2019-05-17T01:50:38.869Z,100467.75
2019-05-17T01:53:09.823Z,100465.75
2019-05-17T01:55:41.317Z,100458.17
2019-05-17T01:58:12.272Z,100459.48
2019-05-17T02:00:43.338Z,100456.83
2019-05-17T02:03:14.342Z,100456.39
2019-05-17T02:05:47.343Z,100454.64
2019-05-17T02:08:18.159Z,100460.73
2019-05-17T02:10:49.154Z,100453.09
2019-05-17T02:13:20.147Z,100449.72
2019-05-17T02:15:51.031Z,100446.75
2019-05-17T02:18:21.996Z,100443.25
2019-05-17T02:20:52.942Z,100449.71
2019-05-17T02:23:24.001Z,100441.26
2019-05-17T02:25:56.980Z,100441.32
2019-05-17T02:28:27.588Z,100435.64
2019-05-17T02:30:58.564Z,100445.12
2019-05-17T02:33:29.547Z,100440.26
2019-05-17T02:36:02.721Z,100441.47
2019-05-17T02:38:33.558Z,100437.33
2019-05-17T02:41:06.225Z,100427.27
2019-05-17T02:43:37.227Z,100429.96
2019-05-17T02:46:08.266Z,100429.55
2019-05-17T02:48:42.530Z,100428.21
2019-05-17T02:51:13.132Z,100421.81
2019-05-17T02:53:44.665Z,100432.64
2019-05-17T02:56:15.555Z,100436.66
2019-05-17T02:58:46.473Z,100428.66
2019-05-17T03:01:17.485Z,100426.16
2019-05-17T03:03:48.528Z,100421.48
2019-05-17T03:06:22.566Z,100421.95
2019-05-17T03:08:52.579Z,100422.25
2019-05-17T03:11:23.778Z,100420.35
2019-05-17T03:13:54.768Z,100421.23
2019-05-17T03:16:25.742Z,100420.41
2019-05-17T03:18:56.695Z,100416.17
2019-05-17T03:21:27.638Z,100418.55
2019-05-17T03:23:58.609Z,100418.05
2019-05-17T03:26:32.550Z,100409.65
2019-05-17T03:29:05.705Z,100411.67
2019-05-17T03:31:47.611Z,100408.21
2019-05-17T03:34:16.648Z,100414.22
2019-05-17T03:36:46.641Z,100406.80
2019-05-17T03:39:17.836Z,100399.69
2019-05-17T03:41:48.836Z,100406.05
2019-05-17T03:44:22.447Z,100403.96
2019-05-17T03:46:53.201Z,100398.34
2019-05-17T03:49:24.380Z,100395.38
2019-05-17T03:51:55.347Z,100394.30
2019-05-17T03:54:26.352Z,100391.38
2019-05-17T03:56:57.395Z,100397.94
2019-05-17T03:59:28.408Z,100393.90
2019-05-17T04:01:59.343Z,100390.34
2019-05-17T04:04:33.041Z,100388.94
2019-05-17T04:07:03.535Z,100388.79
2019-05-17T04:09:37.747Z,100385.84
2019-05-17T04:12:13.333Z,100389.08
2019-05-17T04:14:43.158Z,100387.55
2019-05-17T04:17:14.232Z,100390.02
2019-05-17T04:19:45.255Z,100390.53
2019-05-17T04:22:16.266Z,100386.52
2019-05-17T04:24:47.314Z,100385.80
2019-05-17T04:27:18.274Z,100382.63
2019-05-17T04:29:49.253Z,100374.17
2019-05-17T04:32:24.587Z,100383.16
2019-05-17T04:34:55.588Z,100379.53
2019-05-17T04:37:26.614Z,100367.13
2019-05-17T04:39:57.718Z,100375.83
2019-05-17T04:42:28.733Z,100375.79
2019-05-17T04:45:03.326Z,100377.23
2019-05-17T04:47:33.267Z,100379.36
2019-05-17T04:50:04.615Z,100371.99
2019-05-17T04:52:35.656Z,100377.67
2019-05-17T04:55:07.683Z,100375.73
2019-05-17T04:57:44.002Z,100374.15
2019-05-17T05:00:15.133Z,100377.92
2019-05-17T05:02:46.174Z,100382.20
2019-05-17T05:05:17.135Z,100376.83
2019-05-17T05:07:48.204Z,100380.80
2019-05-17T05:10:27.473Z,100383.00
2019-05-17T05:12:58.459Z,100379.36
2019-05-17T05:15:44.103Z,100369.88
2019-05-17T05:18:14.902Z,100377.23
2019-05-17T05:20:45.983Z,100376.30
2019-05-17T05:23:17.064Z,100371.19
2019-05-17T05:25:48.098Z,100374.96
2019-05-17T05:28:22.351Z,100372.00
2019-05-17T05:30:52.720Z,100367.81
2019-05-17T05:33:23.871Z,100360.97
2019-05-17T05:35:56.640Z,100362.16
2019-05-17T05:38:27.899Z,100357.77
2019-05-17T05:40:58.894Z,100364.03
2019-05-17T05:43:29.705Z,100358.38
2019-05-17T05:46:02.584Z,100359.63
2019-05-17T05:48:33.700Z,100361.50
2019-05-17T05:51:05.412Z,100362.36
2019-05-17T05:53:36.905Z,100353.73
2019-05-17T05:56:07.962Z,100362.37
2019-05-17T05:58:38.811Z,100364.59
2019-05-17T06:01:12.556Z,100354.79
2019-05-17T06:03:43.352Z,100356.06
2019-05-17T06:06:14.458Z,100359.11
2019-05-17T06:08:45.544Z,100356.67
2019-05-17T06:11:16.602Z,100361.05
2019-05-17T06:13:47.521Z,100361.34
2019-05-17T06:16:18.616Z,100360.17
2019-05-17T06:18:51.552Z,100367.05
2019-05-17T06:21:22.743Z,100365.48
2019-05-17T06:23:53.941Z,100359.47
2019-05-17T06:26:24.905Z,100362.90
2019-05-17T06:28:55.905Z,100353.50
2019-05-17T06:31:26.942Z,100354.38
2019-05-17T06:33:57.954Z,100353.30
2019-05-17T06:36:28.925Z,100353.84
2019-05-17T06:39:02.096Z,100354.64
2019-05-17T06:41:32.753Z,100348.16
2019-05-17T06:44:03.790Z,100353.59
2019-05-17T06:46:34.859Z,100345.55
2019-05-17T06:49:06.272Z,100352.28
2019-05-17T06:51:37.328Z,100344.61
2019-05-17T06:54:08.278Z,100348.02
2019-05-17T06:56:41.638Z,100349.98
2019-05-17T06:59:12.759Z,100342.05
2019-05-17T07:01:44.098Z,100347.12
2019-05-17T07:04:16.305Z,100349.17
2019-05-17T07:09:16.364Z,100343.40
2019-05-17T07:14:19.961Z,100342.33
2019-05-17T07:19:23.519Z,100340.81
2019-05-17T07:24:23.718Z,100330.16
2019-05-17T07:26:55.194Z,100334.12
2019-05-17T07:34:24.800Z,100327.69
2019-05-17T07:39:25.049Z,100317.41
2019-05-17T07:44:25.493Z,100315.59
2019-05-17T07:46:56.683Z,100311.84
2019-05-17T07:49:46.653Z,100313.55
2019-05-17T07:59:52.605Z,100301.31
2019-05-17T08:04:54.600Z,100295.29
2019-05-17T08:09:56.525Z,100299.69
2019-05-17T08:14:59.687Z,100288.25
2019-05-17T08:20:00.633Z,100290.88
2019-05-17T08:25:01.893Z,100288.86
2019-05-17T08:30:04.160Z,100280.44
2019-05-17T08:35:04.321Z,100279.59
2019-05-17T08:37:37.467Z,100271.44
2019-05-17T08:40:10.804Z,100272.23
2019-05-17T08:42:41.996Z,100264.28
2019-05-17T08:45:12.928Z,100267.66
2019-05-17T08:50:12.968Z,100269.48
2019-05-17T08:52:44.291Z,100270.01
2019-05-17T08:55:16.758Z,100264.14
2019-05-17T09:00:17.033Z,100254.69
2019-05-17T09:05:20.841Z,100253.18
2019-05-17T09:08:10.802Z,100248.35
2019-05-17T09:10:42.771Z,100248.62
2019-05-17T09:13:14.830Z,100245.97
2019-05-17T09:18:14.811Z,100247.08
2019-05-17T09:20:45.732Z,100253.90
2019-05-17T09:23:19.740Z,100240.03
2019-05-17T09:25:50.779Z,100252.70
2019-05-17T09:28:21.957Z,100243.39
2019-05-17T09:30:53.004Z,100244.47
2019-05-17T09:33:24.047Z,100239.71
2019-05-17T09:35:55.003Z,100239.34
2019-05-17T09:38:25.927Z,100238.84
2019-05-17T09:40:56.927Z,100239.74
2019-05-17T09:43:29.515Z,100235.64
2019-05-17T09:46:01.550Z,100235.89
2019-05-17T09:48:32.935Z,100231.14
2019-05-17T09:51:03.879Z,100222.31
2019-05-17T09:53:34.990Z,100222.11
2019-05-17T09:56:06.298Z,100219.70
2019-05-17T09:58:39.523Z,100220.58
2019-05-17T10:01:10.226Z,100214.79
2019-05-17T10:03:41.285Z,100211.31
2019-05-17T10:06:12.248Z,100208.31
2019-05-17T10:08:43.264Z,100209.41
2019-05-17T10:11:14.526Z,100213.45
2019-05-17T10:13:45.509Z,100213.42
2019-05-17T10:16:16.495Z,100212.11
2019-05-17T10:18:47.449Z,100212.94
2019-05-17T10:21:19.859Z,100214.98
2019-05-17T10:23:51.308Z,100216.66
2019-05-17T10:26:22.622Z,100215.48
2019-05-17T10:28:53.959Z,100214.92
2019-05-17T10:31:25.409Z,100211.14
2019-05-17T10:33:58.289Z,100210.39
2019-05-17T10:36:29.454Z,100207.84
2019-05-17T10:39:00.421Z,100208.23
2019-05-17T10:41:31.392Z,100207.84
2019-05-17T10:44:02.286Z,100206.69
2019-05-17T10:46:33.184Z,100205.25
2019-05-17T10:49:04.255Z,100200.93
2019-05-17T10:51:35.260Z,100200.94
2019-05-17T10:54:06.171Z,100198.70
2019-05-17T10:56:37.072Z,100199.97
2019-05-17T10:59:09.815Z,100191.69
2019-05-17T11:01:40.755Z,100196.68
2019-05-17T11:04:11.778Z,100195.24
2019-05-17T11:06:43.270Z,100193.97
2019-05-17T11:09:14.223Z,100196.47
2019-05-17T11:11:45.354Z,100193.11
2019-05-17T11:14:52.278Z,100192.64
2019-05-17T11:17:30.761Z,100192.81
2019-05-17T11:20:16.654Z,100196.84
2019-05-17T11:23:04.281Z,100191.23
2019-05-17T11:25:56.352Z,100192.93
2019-05-17T11:28:28.294Z,100182.27
2019-05-17T11:31:09.258Z,100185.95
2019-05-17T11:33:40.267Z,100178.08
2019-05-17T11:36:12.453Z,100181.28
2019-05-17T11:38:43.457Z,100182.77
2019-05-17T11:41:21.175Z,100186.46
2019-05-17T11:43:48.379Z,100182.53
2019-05-17T11:46:19.307Z,100182.15
2019-05-17T11:48:51.648Z,100184.92
2019-05-17T11:51:51.384Z,100175.58
2019-05-17T11:54:22.400Z,100181.45
2019-05-17T11:56:53.411Z,100181.73
2019-05-17T11:59:25.092Z,100177.58
2019-05-17T12:01:58.520Z,100177.25
2019-05-17T12:04:29.595Z,100172.02
2019-05-17T12:09:37.391Z,100173.38
2019-05-17T12:12:03.442Z,100165.55
2019-05-17T12:14:36.218Z,100165.24
2019-05-17T12:17:06.885Z,100166.76
2019-05-17T12:22:07.103Z,100167.38
2019-05-17T12:27:07.564Z,100165.13
2019-05-17T12:29:39.338Z,100157.52
2019-05-17T12:34:39.086Z,100152.33
2019-05-17T12:37:09.637Z,100142.83
2019-05-17T12:44:42.106Z,100142.69
2019-05-17T12:47:14.366Z,100142.39
2019-05-17T12:52:14.166Z,100148.45
2019-05-17T12:57:15.668Z,100134.68
2019-05-17T13:02:18.377Z,100133.81
2019-05-17T13:07:18.625Z,100124.70
2019-05-17T13:09:53.624Z,100126.08
2019-05-17T13:12:24.661Z,100123.89
2019-05-17T13:14:56.453Z,100121.90
2019-05-17T13:17:27.760Z,100125.00
2019-05-17T13:24:58.837Z,100128.78
2019-05-17T13:30:03.515Z,100119.09
2019-05-17T13:32:34.599Z,100126.73
2019-05-17T13:35:09.565Z,100129.39
2019-05-17T13:37:40.530Z,100128.20
2019-05-17T13:40:14.093Z,100129.19
2019-05-17T13:42:45.179Z,100123.64
2019-05-17T13:45:17.539Z,100118.34
2019-05-17T13:47:48.424Z,100119.95
2019-05-17T13:50:19.696Z,100112.34
2019-05-17T13:52:50.691Z,100111.47
2019-05-17T13:55:21.862Z,100111.39
2019-05-17T13:57:52.807Z,100106.06
2019-05-17T14:00:23.869Z,100103.59
2019-05-17T14:02:54.810Z,100107.67
2019-05-17T14:05:25.857Z,100104.25
2019-05-17T14:07:56.868Z,100106.58
2019-05-17T14:10:31.535Z,100102.53
2019-05-17T14:13:00.760Z,100104.88
2019-05-17T14:15:32.049Z,100099.45
2019-05-17T14:18:03.654Z,100097.34
2019-05-17T14:20:34.942Z,100096.96
2019-05-17T14:23:06.555Z,100101.42
2019-05-17T14:25:38.726Z,100102.02
2019-05-17T14:28:11.485Z,100095.22
2019-05-17T14:30:42.708Z,100097.72
2019-05-17T14:33:13.961Z,100093.86
2019-05-17T14:35:45.071Z,100094.13
2019-05-17T14:41:05.607Z,100093.79
2019-05-17T14:43:19.862Z,100095.27
2019-05-17T14:45:50.889Z,100098.46
2019-05-17T14:48:21.853Z,100097.00
2019-05-17T14:50:52.988Z,100090.81
2019-05-17T14:53:24.027Z,100094.41
2019-05-17T14:55:55.082Z,100093.28
2019-05-17T14:58:26.116Z,100090.96
2019-05-17T15:00:57.161Z,100086.62
2019-05-17T15:03:28.186Z,100087.23
2019-05-17T15:05:59.099Z,100089.72
2019-05-17T15:08:30.138Z,100097.11
2019-05-17T15:11:01.210Z,100096.38
2019-05-17T15:13:33.637Z,100094.41
2019-05-17T15:16:05.570Z,100096.11
2019-05-17T15:18:36.966Z,100094.52
2019-05-17T15:21:08.364Z,100089.44
2019-05-17T15:23:39.356Z,100086.34
2019-05-17T15:26:10.318Z,100088.19
2019-05-17T15:28:41.511Z,100087.34
2019-05-17T15:31:12.505Z,100087.57
2019-05-17T15:33:43.568Z,100086.08
2019-05-17T15:36:14.538Z,100077.98
2019-05-17T15:38:45.614Z,100079.95
2019-05-17T15:41:16.724Z,100073.67
2019-05-17T15:43:47.698Z,100075.14
2019-05-17T15:46:18.740Z,100071.06
2019-05-17T15:48:49.674Z,100071.84
2019-05-17T15:51:20.768Z,100063.56
2019-05-17T15:53:51.861Z,100055.20
2019-05-17T15:56:22.896Z,100058.40
2019-05-17T15:58:53.939Z,100053.47
2019-05-17T16:01:24.914Z,100059.50
2019-05-17T16:03:55.927Z,100054.33
2019-05-17T16:06:26.991Z,100047.92
2019-05-17T16:08:58.002Z,100048.76
2019-05-17T16:11:28.972Z,100055.80
2019-05-17T16:14:00.084Z,100047.66
2019-05-17T16:16:31.116Z,100051.02
2019-05-17T16:19:02.055Z,100047.92
2019-05-17T16:21:33.108Z,100040.37
2019-05-17T16:24:04.352Z,100036.58
2019-05-17T16:26:35.448Z,100038.66
2019-05-17T16:29:07.070Z,100036.70
2019-05-17T16:31:40.919Z,100042.00
2019-05-17T16:34:11.984Z,100045.20
2019-05-17T16:36:43.023Z,100034.95
2019-05-17T16:39:14.126Z,100035.09
2019-05-17T16:41:45.177Z,100039.40
2019-05-17T16:44:16.294Z,100040.65
2019-05-17T16:46:47.290Z,100035.11
2019-05-17T16:49:18.316Z,100040.27
2019-05-17T16:51:49.317Z,100033.37
2019-05-17T16:54:20.299Z,100028.67
2019-05-17T16:56:51.279Z,100032.25
2019-05-17T16:59:22.391Z,100031.38
2019-05-17T17:01:53.520Z,100034.84
2019-05-17T17:06:54.467Z,100034.22
2019-05-17T17:09:25.665Z,100037.16
2019-05-17T17:11:56.565Z,100032.99
2019-05-17T17:14:28.021Z,100026.45
2019-05-17T17:16:59.140Z,100033.86
2019-05-17T17:19:30.106Z,100026.11
2019-05-17T17:22:01.341Z,100028.55
2019-05-17T17:24:32.352Z,100025.48
2019-05-17T17:27:03.631Z,100027.19
2019-05-17T17:29:34.776Z,100019.31
2019-05-17T17:32:19.433Z,100025.48
2019-05-17T17:34:39.486Z,100022.88
2019-05-17T17:37:10.811Z,100021.52
2019-05-17T17:39:42.524Z,100016.86
2019-05-17T17:42:13.643Z,100017.22
2019-05-17T17:44:47.640Z,100014.08
2019-05-17T17:47:18.668Z,100014.53
2019-05-17T17:49:51.017Z,100013.81
2019-05-17T17:52:22.270Z,100015.69
2019-05-17T17:54:53.377Z,100019.72
2019-05-17T17:57:28.476Z,100019.09
2019-05-17T17:59:59.679Z,100024.22
2019-05-17T18:02:30.796Z,100023.86
2019-05-17T18:05:04.041Z,100025.31
2019-05-17T18:07:37.135Z,100019.56
2019-05-17T18:12:55.645Z,100020.45
2019-05-17T18:15:42.078Z,100016.02
2019-05-17T18:18:16.440Z,100019.09
2019-05-17T18:20:47.477Z,100018.45
2019-05-17T18:23:22.972Z,100016.34
2019-05-17T18:25:51.630Z,100021.52
2019-05-17T18:28:45.168Z,100024.94
2019-05-17T18:31:16.268Z,100026.56
2019-05-17T18:33:47.371Z,100027.27
2019-05-17T18:36:18.413Z,100019.05
2019-05-17T18:38:51.461Z,100023.83
2019-05-17T18:41:25.169Z,100025.70
2019-05-17T18:43:58.156Z,100029.71
2019-05-17T18:46:30.858Z,100031.45
2019-05-17T18:54:07.477Z,100040.36
2019-05-17T18:56:43.723Z,100032.72
2019-05-17T18:59:19.373Z,100034.84
2019-05-17T19:01:50.428Z,100034.31
2019-05-17T19:04:21.470Z,100035.70
2019-05-17T19:07:13.129Z,100036.95
2019-05-17T19:09:58.368Z,100029.09
2019-05-17T19:13:19.266Z,100042.41
2019-05-17T19:16:51.218Z,100041.32
2019-05-17T19:19:22.266Z,100047.37
2019-05-17T19:21:53.137Z,100053.24
2019-05-17T19:24:24.127Z,100050.00
2019-05-17T19:26:55.265Z,100052.45
2019-05-17T19:29:30.357Z,100056.03
2019-05-17T19:32:03.564Z,100061.34
2019-05-17T19:34:34.676Z,100058.14
2019-05-17T19:37:08.870Z,100056.41
2019-05-17T19:39:39.917Z,100060.55
2019-05-17T19:42:10.771Z,100060.03
2019-05-17T19:47:11.165Z,100069.83
2019-05-17T19:52:15.760Z,100059.00
2019-05-17T19:55:07.851Z,100065.17
2019-05-17T19:57:40.648Z,100066.39
2019-05-17T20:00:14.927Z,100067.85
2019-05-17T20:05:18.713Z,100077.91
2019-05-17T20:10:25.664Z,100068.95
2019-05-17T20:15:34.536Z,100071.54
2019-05-17T20:20:32.081Z,100071.55
2019-05-17T20:25:32.043Z,100064.17
2019-05-17T20:28:03.039Z,100066.95
2019-05-17T20:30:41.194Z,100061.40
2019-05-17T20:33:12.204Z,100057.55
2019-05-17T20:35:43.284Z,100057.39
2019-05-17T20:38:18.688Z,100051.83
2019-05-17T20:41:27.522Z,100060.22
2019-05-17T20:44:00.971Z,100055.72
2019-05-17T20:46:40.772Z,100049.95
2019-05-17T20:49:14.655Z,100050.86
2019-05-17T20:51:45.623Z,100058.16
2019-05-17T20:57:57.109Z,100058.03
2019-05-17T21:00:28.273Z,100059.05
2019-05-17T21:02:59.421Z,100060.97
2019-05-17T21:05:40.608Z,100048.66
2019-05-17T21:08:17.741Z,100054.70
2019-05-17T21:10:49.045Z,100053.75
2019-05-17T21:14:27.964Z,100053.37
2019-05-17T21:16:55.810Z,100056.45
2019-05-17T21:19:26.928Z,100055.91
2019-05-17T21:21:57.969Z,100060.17
2019-05-17T21:24:29.052Z,100056.98
2019-05-17T21:27:00.121Z,100059.95
2019-05-17T21:29:31.197Z,100062.87
2019-05-17T21:32:02.320Z,100062.95
2019-05-17T21:34:33.352Z,100058.09
2019-05-17T21:37:04.446Z,100066.28
2019-05-17T21:39:35.387Z,100060.23
2019-05-17T21:42:06.400Z,100051.36
2019-05-17T21:44:37.307Z,100054.94
2019-05-17T21:47:08.246Z,100051.98
2019-05-17T21:49:39.260Z,100050.72
2019-05-17T21:52:10.261Z,100058.64
2019-05-17T21:54:41.183Z,100050.06
2019-05-17T21:57:12.330Z,100053.42
2019-05-17T21:59:43.405Z,100051.03
2019-05-17T22:02:14.440Z,100054.81
2019-05-17T22:04:45.386Z,100053.17
2019-05-17T22:07:16.444Z,100049.16
2019-05-17T22:09:47.467Z,100056.47
2019-05-17T22:12:18.535Z,100053.59
2019-05-17T22:14:49.742Z,100052.38
2019-05-17T22:17:21.060Z,100054.02
2019-05-17T22:19:52.524Z,100055.53
2019-05-17T22:22:23.687Z,100060.34
2019-05-17T22:24:54.764Z,100055.36
2019-05-17T22:27:25.822Z,100056.32
2019-05-17T22:29:56.729Z,100047.58
2019-05-17T22:32:27.605Z,100045.91
2019-05-17T22:34:58.517Z,100045.62
2019-05-17T22:37:29.539Z,100040.44
2019-05-17T22:40:00.735Z,100033.91
2019-05-17T22:42:31.826Z,100030.52
2019-05-17T22:45:02.834Z,100031.88
2019-05-17T22:47:33.835Z,100037.16
2019-05-17T22:50:06.401Z,100036.68
2019-05-17T22:52:37.363Z,100031.46
2019-05-17T22:55:08.460Z,100032.90
2019-05-17T22:57:39.637Z,100033.94
2019-05-17T23:00:10.482Z,100041.25
2019-05-17T23:02:41.394Z,100040.47
2019-05-17T23:05:12.334Z,100035.45
2019-05-17T23:07:43.239Z,100032.68
2019-05-17T23:10:14.268Z,100029.59
2019-05-17T23:12:45.249Z,100037.16
2019-05-17T23:15:16.218Z,100039.45
2019-05-17T23:17:47.144Z,100035.22
2019-05-17T23:20:18.131Z,100022.52
2019-05-17T23:22:49.067Z,100031.23
2019-05-17T23:25:20.084Z,100032.05
2019-05-17T23:27:50.917Z,100032.80
2019-05-17T23:30:22.067Z,100033.44
2019-05-17T23:32:53.534Z,100031.02
2019-05-17T23:35:24.977Z,100031.09
2019-05-17T23:37:56.371Z,100028.05
2019-05-17T23:40:27.581Z,100027.92
2019-05-17T23:42:58.619Z,100026.84
2019-05-17T23:45:29.596Z,100024.03
2019-05-17T23:48:00.688Z,100026.98
2019-05-17T23:50:31.684Z,100020.34
2019-05-17T23:53:02.641Z,100025.12
2019-05-17T23:55:33.454Z,100025.52
2019-05-17T23:58:04.468Z,100024.04
